createdAt,value
2019-05-28T00:02:10.836Z,65.30
2019-05-28T00:04:40.986Z,65.50
2019-05-28T00:07:11.356Z,65.30
2019-05-28T00:09:41.596Z,65.30
2019-05-28T00:12:11.766Z,65.40
2019-05-28T00:14:41.837Z,65.60
2019-05-28T00:17:11.998Z,65.70
2019-05-28T00:19:42.152Z,65.60
2019-05-28T00:22:12.499Z,65.40
2019-05-28T00:24:42.599Z,65.50
2019-05-28T00:27:12.810Z,65.40
2019-05-28T00:29:42.908Z,65.70
2019-05-28T00:32:13.213Z,65.60
2019-05-28T00:34:43.689Z,65.90
2019-05-28T00:37:14.195Z,66.00
2019-05-28T00:39:44.353Z,66.20
2019-05-28T00:42:14.506Z,65.90
2019-05-28T00:44:46.038Z,65.80
2019-05-28T00:47:16.555Z,66.00
2019-05-28T00:49:49.570Z,65.60
2019-05-28T00:52:18.474Z,65.70
2019-05-28T00:54:48.718Z,65.50
2019-05-28T00:57:19.253Z,65.60
2019-05-28T00:59:59.662Z,65.70
2019-05-28T01:02:29.794Z,65.70
2019-05-28T01:04:59.983Z,65.70
2019-05-28T01:07:31.223Z,65.80
2019-05-28T01:10:01.741Z,66.50
2019-05-28T01:12:32.261Z,65.90
2019-05-28T01:15:02.401Z,65.60
2019-05-28T01:17:32.477Z,65.30
2019-05-28T01:20:03.055Z,65.70
2019-05-28T01:22:33.372Z,65.60
2019-05-28T01:25:04.091Z,65.80
2019-05-28T01:27:34.225Z,65.50
2019-05-28T01:30:04.867Z,66.00
2019-05-28T01:32:35.063Z,65.70
2019-05-28T01:35:06.291Z,65.60
2019-05-28T01:37:36.461Z,65.60
2019-05-28T01:40:06.969Z,65.50
2019-05-28T01:42:37.159Z,65.60
2019-05-28T01:45:07.887Z,65.90
2019-05-28T01:47:38.150Z,65.60
2019-05-28T01:50:09.838Z,65.80
2019-05-28T01:52:40.003Z,65.60
2019-05-28T01:55:11.025Z,65.30
2019-05-28T01:57:41.180Z,65.70
2019-05-28T02:00:13.258Z,65.70
2019-05-28T02:02:43.459Z,65.40
2019-05-28T02:05:14.363Z,66.20
2019-05-28T02:07:44.603Z,65.00
2019-05-28T02:10:17.578Z,65.60
2019-05-28T02:12:47.715Z,65.70
2019-05-28T02:15:18.395Z,65.80
2019-05-28T02:17:48.433Z,65.80
2019-05-28T02:20:18.575Z,65.70
2019-05-28T02:22:48.673Z,65.00
2019-05-28T02:25:19.195Z,65.60
2019-05-28T02:27:49.337Z,65.60
2019-05-28T02:30:21.175Z,65.60
2019-05-28T02:32:51.317Z,65.80
2019-05-28T02:35:22.875Z,65.90
2019-05-28T02:37:53.148Z,66.20
2019-05-28T02:40:23.409Z,65.80
2019-05-28T02:42:53.571Z,66.20
2019-05-28T02:45:24.113Z,66.00
2019-05-28T02:47:54.356Z,66.20
2019-05-28T02:51:02.375Z,65.90
2019-05-28T02:53:33.148Z,66.10
2019-05-28T02:56:03.289Z,66.10
2019-05-28T02:58:35.755Z,65.90
2019-05-28T03:01:08.343Z,65.70
2019-05-28T03:03:38.999Z,65.90
2019-05-28T03:06:11.391Z,66.00
2019-05-28T03:08:43.059Z,65.70
2019-05-28T03:11:13.215Z,66.00
2019-05-28T03:13:43.337Z,66.20
2019-05-28T03:16:15.320Z,66.20
2019-05-28T03:18:46.183Z,66.30
2019-05-28T03:21:17.518Z,66.10
2019-05-28T03:23:47.743Z,66.20
2019-05-28T03:26:17.973Z,66.30
2019-05-28T03:28:48.121Z,66.40
2019-05-28T03:31:18.258Z,66.20
2019-05-28T03:33:48.448Z,66.40
2019-05-28T03:36:21.759Z,66.40
2019-05-28T03:38:53.047Z,66.90
2019-05-28T03:41:23.201Z,66.10
2019-05-28T03:43:53.431Z,65.90
2019-05-28T03:46:23.510Z,65.80
2019-05-28T03:48:53.564Z,66.20
2019-05-28T03:51:23.728Z,66.20
2019-05-28T03:53:53.869Z,66.80
2019-05-28T03:56:24.425Z,66.60
2019-05-28T03:58:56.615Z,66.80
2019-05-28T04:01:26.849Z,66.80
2019-05-28T04:03:57.016Z,66.70
2019-05-28T04:06:27.393Z,67.00
2019-05-28T04:08:57.556Z,67.60
2019-05-28T04:11:41.939Z,66.50
2019-05-28T04:14:00.267Z,66.70
2019-05-28T04:16:30.438Z,66.50
2019-05-28T04:19:00.568Z,66.70
2019-05-28T04:21:31.272Z,67.00
2019-05-28T04:24:01.336Z,67.10
2019-05-28T04:26:31.426Z,67.00
2019-05-28T04:29:01.503Z,67.30
2019-05-28T04:31:31.648Z,67.50
2019-05-28T04:34:01.696Z,67.30
2019-05-28T04:36:31.870Z,67.60
2019-05-28T04:39:02.248Z,67.70
2019-05-28T04:41:34.075Z,68.00
2019-05-28T04:44:04.242Z,68.00
2019-05-28T04:46:34.421Z,67.90
2019-05-28T04:49:04.596Z,67.90
2019-05-28T04:51:34.746Z,68.30
2019-05-28T04:54:04.814Z,68.20
2019-05-28T04:56:35.296Z,68.40
2019-05-28T04:59:05.802Z,68.20
2019-05-28T05:01:36.358Z,68.30
2019-05-28T05:04:06.513Z,68.50
2019-05-28T05:06:36.656Z,68.40
2019-05-28T05:09:08.148Z,68.60
2019-05-28T05:11:38.406Z,69.20
2019-05-28T05:14:08.531Z,68.80
2019-05-28T05:16:38.687Z,68.70
2019-05-28T05:19:09.235Z,68.80
2019-05-28T05:21:39.796Z,68.60
2019-05-28T05:24:10.274Z,68.30
2019-05-28T05:26:40.436Z,68.00
2019-05-28T05:29:10.623Z,68.00
2019-05-28T05:31:42.410Z,68.30
2019-05-28T05:34:12.917Z,68.60
2019-05-28T05:36:43.054Z,68.20
2019-05-28T05:39:13.120Z,68.40
2019-05-28T05:41:43.369Z,68.30
2019-05-28T05:44:13.489Z,68.40
2019-05-28T05:46:43.734Z,68.50
2019-05-28T05:49:13.889Z,68.90
2019-05-28T05:51:44.370Z,69.30
2019-05-28T05:54:14.791Z,69.20
2019-05-28T05:56:44.940Z,68.80
2019-05-28T05:59:15.002Z,69.00
2019-05-28T06:01:45.548Z,68.80
2019-05-28T06:04:15.637Z,68.70
2019-05-28T06:06:45.883Z,69.00
2019-05-28T06:09:16.024Z,69.30
2019-05-28T06:11:46.165Z,69.00
2019-05-28T06:14:16.253Z,69.30
2019-05-28T06:16:47.382Z,69.20
2019-05-28T06:19:17.497Z,68.60
2019-05-28T06:21:48.048Z,68.70
2019-05-28T06:24:18.187Z,68.60
2019-05-28T06:26:48.316Z,68.80
2019-05-28T06:29:18.364Z,69.40
2019-05-28T06:31:48.625Z,69.70
2019-05-28T06:34:19.166Z,69.50
2019-05-28T06:36:49.330Z,69.20
2019-05-28T06:39:19.486Z,69.60
2019-05-28T06:41:50.024Z,69.90
2019-05-28T06:44:20.258Z,70.00
2019-05-28T06:46:50.412Z,70.00
2019-05-28T06:49:20.631Z,70.30
2019-05-28T06:51:50.952Z,69.80
2019-05-28T06:54:21.269Z,70.10
2019-05-28T06:56:51.388Z,70.60
2019-05-28T06:59:21.474Z,70.70
2019-05-28T07:01:52.018Z,70.30
2019-05-28T07:04:32.235Z,70.60
2019-05-28T07:06:54.060Z,70.50
2019-05-28T07:09:24.298Z,69.90
2019-05-28T07:11:54.927Z,69.90
2019-05-28T07:14:25.034Z,70.00
2019-05-28T07:16:55.264Z,70.10
2019-05-28T07:19:25.563Z,69.90
2019-05-28T07:21:55.773Z,70.40
2019-05-28T07:24:25.932Z,70.90
2019-05-28T07:26:56.101Z,70.80
2019-05-28T07:29:26.562Z,71.80
2019-05-28T07:31:57.128Z,71.30
2019-05-28T07:34:30.828Z,71.40
2019-05-28T07:37:00.273Z,71.30
2019-05-28T07:39:30.659Z,70.40
2019-05-28T07:42:01.353Z,70.60
2019-05-28T07:44:31.683Z,70.90
2019-05-28T07:47:02.927Z,71.00
2019-05-28T07:49:33.141Z,71.60
2019-05-28T07:52:03.211Z,71.30
2019-05-28T07:54:33.448Z,71.40
2019-05-28T07:57:03.834Z,71.40
2019-05-28T07:59:33.945Z,72.20
2019-05-28T08:02:04.101Z,71.30
2019-05-28T08:04:46.837Z,71.30
2019-05-28T08:07:06.235Z,71.40
2019-05-28T08:09:36.782Z,71.00
2019-05-28T08:12:07.413Z,70.80
2019-05-28T08:14:43.619Z,70.10
2019-05-28T08:17:13.873Z,69.80
2019-05-28T08:19:44.027Z,69.20
2019-05-28T08:22:14.116Z,69.80
2019-05-28T08:24:44.343Z,69.30
2019-05-28T08:27:14.420Z,68.80
2019-05-28T08:29:45.739Z,69.00
2019-05-28T08:32:19.741Z,69.00
2019-05-28T08:35:04.277Z,69.40
2019-05-28T08:37:22.069Z,69.50
2019-05-28T08:39:52.170Z,69.50
2019-05-28T08:42:22.287Z,69.60
2019-05-28T08:44:52.461Z,69.80
2019-05-28T08:47:22.816Z,70.20
2019-05-28T08:49:53.065Z,69.70
2019-05-28T08:52:23.313Z,69.80
2019-05-28T08:54:53.879Z,69.20
2019-05-28T08:57:23.983Z,69.10
2019-05-28T08:59:54.187Z,68.90
2019-05-28T09:02:28.435Z,68.90
2019-05-28T09:04:56.250Z,69.20
2019-05-28T09:07:26.849Z,69.10
2019-05-28T09:09:57.006Z,69.10
2019-05-28T09:12:27.675Z,69.00
2019-05-28T09:14:58.191Z,68.70
2019-05-28T09:17:28.311Z,68.60
2019-05-28T09:20:05.650Z,68.70
2019-05-28T09:22:37.229Z,68.70
2019-05-28T09:25:07.435Z,68.60
2019-05-28T09:27:37.982Z,68.90
2019-05-28T09:30:08.826Z,69.00
2019-05-28T09:32:39.527Z,68.90
2019-05-28T09:35:10.968Z,68.80
2019-05-28T09:37:41.095Z,69.30
2019-05-28T09:40:13.265Z,69.10
2019-05-28T09:42:43.354Z,69.50
2019-05-28T09:45:22.587Z,69.60
2019-05-28T09:47:47.157Z,69.40
2019-05-28T09:50:30.082Z,69.50
2019-05-28T09:52:54.872Z,69.10
2019-05-28T09:55:22.835Z,68.80
2019-05-28T09:57:52.882Z,68.80
2019-05-28T10:00:25.079Z,68.80
2019-05-28T10:02:55.651Z,68.30
2019-05-28T10:05:26.705Z,67.00
2019-05-28T10:07:56.791Z,67.50
2019-05-28T10:10:27.339Z,66.90
2019-05-28T10:12:57.648Z,66.50
2019-05-28T10:15:28.301Z,66.80
2019-05-28T10:17:58.518Z,66.90
2019-05-28T10:20:29.592Z,67.00
2019-05-28T10:22:59.739Z,67.10
2019-05-28T10:25:29.941Z,66.80
2019-05-28T10:28:01.860Z,66.70
2019-05-28T10:30:32.397Z,67.30
2019-05-28T10:33:02.593Z,67.50
2019-05-28T10:35:33.071Z,67.70
2019-05-28T10:38:03.366Z,67.60
2019-05-28T10:40:33.511Z,68.00
2019-05-28T10:43:03.641Z,67.80
2019-05-28T10:45:33.973Z,68.20
2019-05-28T10:48:04.131Z,68.60
2019-05-28T10:50:34.357Z,68.40
2019-05-28T10:53:04.547Z,68.40
2019-05-28T10:55:34.706Z,69.00
2019-05-28T10:58:04.818Z,68.30
2019-05-28T11:00:34.988Z,68.60
2019-05-28T11:03:05.459Z,67.80
2019-05-28T11:05:36.097Z,67.10
2019-05-28T11:08:06.258Z,66.40
2019-05-28T11:10:36.853Z,66.20
2019-05-28T11:13:06.927Z,65.90
2019-05-28T11:15:37.240Z,65.70
2019-05-28T11:18:07.751Z,66.90
2019-05-28T11:20:38.019Z,66.70
2019-05-28T11:23:08.480Z,66.10
2019-05-28T11:25:38.661Z,66.20
2019-05-28T11:28:08.774Z,65.70
2019-05-28T11:30:38.961Z,66.40
2019-05-28T11:33:09.493Z,65.50
2019-05-28T11:35:39.690Z,66.20
2019-05-28T11:38:09.899Z,65.80
2019-05-28T11:40:40.074Z,65.50
2019-05-28T11:43:10.325Z,65.60
2019-05-28T11:45:40.484Z,65.60
2019-05-28T11:48:10.775Z,66.60
2019-05-28T11:50:41.312Z,67.80
2019-05-28T11:53:11.465Z,67.00
2019-05-28T11:55:41.961Z,66.80
2019-05-28T11:58:12.082Z,67.10
2019-05-28T12:00:42.404Z,65.30
2019-05-28T12:03:12.552Z,66.00
2019-05-28T12:05:42.700Z,66.10
2019-05-28T12:08:12.998Z,65.40
2019-05-28T12:10:43.172Z,66.30
2019-05-28T12:13:13.746Z,65.50
2019-05-28T12:15:43.934Z,66.00
2019-05-28T12:18:14.143Z,67.70
2019-05-28T12:20:44.338Z,67.40
2019-05-28T12:23:14.838Z,66.90
2019-05-28T12:25:45.350Z,66.80
2019-05-28T12:28:15.507Z,66.10
2019-05-28T12:30:45.661Z,66.10
2019-05-28T12:33:16.026Z,66.20
2019-05-28T12:35:46.231Z,65.90
2019-05-28T12:38:16.942Z,64.70
2019-05-28T12:40:48.568Z,66.30
2019-05-28T12:43:19.047Z,65.80
2019-05-28T12:45:49.660Z,65.30
2019-05-28T12:48:19.750Z,65.60
2019-05-28T12:50:49.902Z,65.30
2019-05-28T12:53:20.050Z,65.90
2019-05-28T12:55:50.196Z,63.50
2019-05-28T12:58:20.709Z,63.40
2019-05-28T13:00:50.912Z,63.60
2019-05-28T13:03:21.077Z,63.00
2019-05-28T13:05:51.649Z,62.10
2019-05-28T13:08:23.462Z,62.70
2019-05-28T13:10:53.599Z,62.50
2019-05-28T13:13:23.838Z,62.40
2019-05-28T13:15:53.958Z,62.60
2019-05-28T13:18:24.238Z,62.00
2019-05-28T13:20:54.472Z,61.70
2019-05-28T13:23:24.742Z,61.70
2019-05-28T13:25:55.258Z,61.70
2019-05-28T13:28:25.458Z,62.20
2019-05-28T13:30:56.438Z,61.40
2019-05-28T13:33:26.720Z,61.80
2019-05-28T13:35:56.889Z,62.00
2019-05-28T13:38:27.885Z,61.90
2019-05-28T13:40:58.518Z,62.00
2019-05-28T13:43:28.701Z,61.80
2019-05-28T13:45:58.830Z,61.80
2019-05-28T13:48:28.977Z,62.20
2019-05-28T13:50:59.732Z,63.00
2019-05-28T13:53:29.910Z,62.90
2019-05-28T13:56:00.380Z,63.20
2019-05-28T13:58:30.562Z,64.40
2019-05-28T14:01:00.896Z,63.60
2019-05-28T14:03:31.051Z,63.30
2019-05-28T14:06:01.229Z,63.50
2019-05-28T14:08:45.998Z,62.70
2019-05-28T14:11:04.936Z,63.10
2019-05-28T14:13:35.093Z,64.30
2019-05-28T14:19:12.523Z,64.50
2019-05-28T14:21:42.768Z,65.40
2019-05-28T14:24:13.368Z,65.20
2019-05-28T14:26:43.986Z,65.30
2019-05-28T14:29:14.140Z,65.00
2019-05-28T14:31:44.409Z,65.70
2019-05-28T14:34:14.588Z,65.20
2019-05-28T14:36:44.844Z,65.20
2019-05-28T14:39:15.086Z,66.10
2019-05-28T14:41:45.262Z,64.40
2019-05-28T14:44:15.466Z,64.50
2019-05-28T14:46:45.612Z,65.10
2019-05-28T14:49:16.159Z,64.90
2019-05-28T14:51:46.703Z,64.40
2019-05-28T14:54:16.932Z,63.10
2019-05-28T14:56:47.083Z,64.30
2019-05-28T14:59:17.704Z,64.90
2019-05-28T15:01:48.038Z,65.20
2019-05-28T15:04:18.092Z,65.30
2019-05-28T15:06:48.237Z,66.40
2019-05-28T15:09:21.382Z,65.90
2019-05-28T15:11:50.279Z,65.20
2019-05-28T15:14:20.854Z,63.90
2019-05-28T15:16:51.030Z,63.90
2019-05-28T15:19:21.209Z,65.60
2019-05-28T15:21:51.661Z,63.40
2019-05-28T15:24:30.905Z,61.30
2019-05-28T15:27:01.034Z,58.10
2019-05-28T15:29:31.353Z,58.30
2019-05-28T15:32:02.781Z,58.80
2019-05-28T15:34:32.945Z,58.70
2019-05-28T15:37:03.070Z,58.00
2019-05-28T15:39:39.987Z,57.90
2019-05-28T15:42:05.762Z,57.00
2019-05-28T15:44:36.040Z,57.30
2019-05-28T15:47:06.163Z,57.50
2019-05-28T15:49:36.516Z,58.20
2019-05-28T15:52:08.022Z,59.00
2019-05-28T15:54:38.993Z,59.70
2019-05-28T15:57:09.268Z,59.90
2019-05-28T15:59:39.949Z,59.40
2019-05-28T16:02:10.090Z,58.40
2019-05-28T16:04:40.672Z,58.80
2019-05-28T16:07:10.835Z,58.80
2019-05-28T16:09:54.981Z,58.10
2019-05-28T16:12:12.952Z,56.60
2019-05-28T16:14:43.113Z,58.10
2019-05-28T16:17:13.567Z,58.20
2019-05-28T16:19:44.137Z,57.70
2019-05-28T16:22:14.359Z,58.70
2019-05-28T16:24:44.594Z,59.30
2019-05-28T16:27:14.805Z,58.40
2019-05-28T16:29:45.010Z,58.40
2019-05-28T16:32:15.649Z,59.80
2019-05-28T16:34:45.907Z,59.10
2019-05-28T16:37:16.077Z,59.10
2019-05-28T16:39:47.536Z,59.60
2019-05-28T16:42:18.695Z,59.40
2019-05-28T16:44:48.877Z,59.50
2019-05-28T16:47:19.030Z,59.40
2019-05-28T16:49:49.618Z,61.20
2019-05-28T16:52:19.766Z,60.80
2019-05-28T16:54:50.398Z,60.90
2019-05-28T16:57:20.956Z,60.00
2019-05-28T16:59:51.117Z,61.90
2019-05-28T17:02:21.195Z,60.80
2019-05-28T17:04:51.876Z,60.70
2019-05-28T17:07:22.181Z,61.60
2019-05-28T17:09:53.273Z,62.30
2019-05-28T17:12:23.414Z,59.90
2019-05-28T17:14:54.348Z,59.30
2019-05-28T17:17:24.949Z,59.30
2019-05-28T17:19:55.099Z,59.10
2019-05-28T17:22:25.408Z,60.30
2019-05-28T17:24:55.697Z,61.10
2019-05-28T17:27:26.086Z,59.90
2019-05-28T17:30:13.389Z,59.40
2019-05-28T17:32:27.977Z,59.10
2019-05-28T17:34:58.306Z,58.50
2019-05-28T17:37:28.565Z,59.00
2019-05-28T17:39:58.671Z,59.60
2019-05-28T17:42:28.941Z,60.00
2019-05-28T17:44:59.107Z,60.20
2019-05-28T17:47:29.347Z,60.10
2019-05-28T17:49:59.625Z,60.50
2019-05-28T17:52:29.767Z,60.40
2019-05-28T17:55:00.316Z,61.00
2019-05-28T17:57:31.231Z,61.00
2019-05-28T18:00:01.413Z,62.80
2019-05-28T18:02:32.026Z,61.40
2019-05-28T18:05:02.689Z,60.90
2019-05-28T18:07:32.910Z,61.00
2019-05-28T18:10:03.734Z,60.70
2019-05-28T18:12:33.951Z,61.00
2019-05-28T18:15:05.096Z,61.00
2019-05-28T18:17:35.447Z,61.00
2019-05-28T18:20:06.117Z,61.40
2019-05-28T18:22:36.294Z,60.70
2019-05-28T18:25:10.330Z,61.80
2019-05-28T18:27:40.763Z,60.80
2019-05-28T18:30:12.672Z,61.60
2019-05-28T18:32:43.054Z,62.00
2019-05-28T18:35:13.929Z,61.10
2019-05-28T18:37:44.111Z,60.40
2019-05-28T18:40:15.374Z,59.80
2019-05-28T18:42:45.587Z,60.00
2019-05-28T18:45:17.122Z,60.50
2019-05-28T18:47:47.994Z,60.80
2019-05-28T18:50:18.575Z,61.00
2019-05-28T18:52:49.340Z,61.50
2019-05-28T18:55:23.318Z,60.80
2019-05-28T18:57:52.285Z,60.50
2019-05-28T19:00:23.114Z,60.50
2019-05-28T19:02:53.608Z,60.00
2019-05-28T19:05:26.665Z,60.80
2019-05-28T19:07:57.434Z,60.90
2019-05-28T19:10:27.593Z,61.70
2019-05-28T19:12:58.408Z,61.80
2019-05-28T19:15:30.328Z,61.50
2019-05-28T19:18:00.538Z,61.40
2019-05-28T19:20:30.771Z,61.10
2019-05-28T19:23:00.967Z,60.40
2019-05-28T19:25:31.231Z,60.80
2019-05-28T19:28:01.459Z,60.60
2019-05-28T19:30:35.845Z,60.40
2019-05-28T19:33:06.975Z,60.20
2019-05-28T19:35:37.112Z,60.70
2019-05-28T19:38:08.091Z,60.60
2019-05-28T19:40:39.484Z,61.10
2019-05-28T19:43:09.954Z,60.30
2019-05-28T19:45:40.379Z,59.90
2019-05-28T19:48:10.947Z,59.70
2019-05-28T19:50:42.214Z,59.50
2019-05-28T19:53:13.133Z,59.70
2019-05-28T19:55:43.920Z,60.20
2019-05-28T19:58:14.383Z,59.40
2019-05-28T20:00:45.346Z,59.40
2019-05-28T20:03:15.943Z,59.40
2019-05-28T20:05:46.418Z,58.70
2019-05-28T20:08:16.588Z,58.30
2019-05-28T20:10:50.738Z,58.40
2019-05-28T20:13:21.076Z,58.40
2019-05-28T20:15:51.223Z,58.40
2019-05-28T20:18:26.693Z,58.00
2019-05-28T20:20:53.896Z,58.60
2019-05-28T20:23:25.194Z,58.70
2019-05-28T20:25:56.020Z,57.50
2019-05-28T20:28:26.372Z,57.10
2019-05-28T20:30:56.846Z,57.40
2019-05-28T20:33:27.044Z,57.70
2019-05-28T20:35:57.303Z,58.00
2019-05-28T20:38:27.770Z,58.20
2019-05-28T20:40:57.947Z,58.30
2019-05-28T20:43:28.045Z,57.90
2019-05-28T20:45:58.234Z,57.90
2019-05-28T20:48:28.364Z,58.00
2019-05-28T20:51:07.889Z,58.20
2019-05-28T20:53:35.987Z,58.40
2019-05-28T20:56:01.986Z,59.00
2019-05-28T20:58:40.400Z,58.70
2019-05-28T21:01:04.202Z,58.00
2019-05-28T21:03:35.043Z,57.70
2019-05-28T21:06:05.231Z,57.70
2019-05-28T21:08:35.753Z,57.90
2019-05-28T21:11:06.256Z,57.90
2019-05-28T21:13:36.300Z,57.80
2019-05-28T21:16:06.380Z,57.90
2019-05-28T21:18:36.506Z,58.20
2019-05-28T21:21:06.781Z,58.50
2019-05-28T21:23:37.291Z,58.90
2019-05-28T21:26:07.787Z,58.80
2019-05-28T21:28:37.916Z,59.40
2019-05-28T21:31:08.375Z,58.90
2019-05-28T21:33:38.431Z,59.10
2019-05-28T21:36:09.218Z,59.40
2019-05-28T21:38:39.658Z,59.50
2019-05-28T21:41:09.686Z,60.00
2019-05-28T21:43:39.716Z,60.20
2019-05-28T21:46:10.827Z,59.80
2019-05-28T21:48:41.244Z,59.60
2019-05-28T21:51:11.288Z,59.50
2019-05-28T21:53:41.703Z,59.90
2019-05-28T21:56:11.727Z,60.20
2019-05-28T21:58:41.792Z,60.40
2019-05-28T22:01:16.856Z,60.40
2019-05-28T22:03:46.892Z,60.10
2019-05-28T22:06:16.888Z,60.80
2019-05-28T22:08:47.037Z,61.30
2019-05-28T22:11:17.313Z,60.80
2019-05-28T22:13:47.670Z,60.30
2019-05-28T22:16:18.084Z,60.80
2019-05-28T22:18:48.185Z,60.50
2019-05-28T22:21:18.810Z,61.10
2019-05-28T22:23:48.944Z,60.30
2019-05-28T22:26:19.281Z,60.20
2019-05-28T22:28:49.708Z,60.60
2019-05-28T22:31:19.744Z,60.00
2019-05-28T22:33:49.803Z,60.80
2019-05-28T22:36:19.896Z,60.70
2019-05-28T22:39:09.230Z,60.70
2019-05-28T22:41:41.487Z,60.40
2019-05-28T22:44:12.030Z,60.30
2019-05-28T22:46:42.417Z,60.60
2019-05-28T22:49:12.546Z,60.70
2019-05-28T22:51:42.680Z,60.90
2019-05-28T22:54:12.747Z,60.50
2019-05-28T22:56:42.773Z,61.20
2019-05-28T22:59:12.812Z,60.90
2019-05-28T23:01:43.291Z,61.30
2019-05-28T23:04:13.340Z,61.30
2019-05-28T23:06:43.995Z,61.00
2019-05-28T23:09:14.026Z,61.50
2019-05-28T23:11:46.210Z,61.50
2019-05-28T23:14:16.234Z,61.50
2019-05-28T23:16:46.285Z,61.40
2019-05-28T23:19:16.820Z,61.20
2019-05-28T23:21:46.869Z,61.60
2019-05-28T23:24:16.931Z,61.30
2019-05-28T23:26:47.337Z,61.20
2019-05-28T23:29:17.386Z,61.30
2019-05-28T23:31:47.396Z,60.90
2019-05-28T23:34:17.445Z,60.50
2019-05-28T23:36:47.473Z,61.00
2019-05-28T23:39:17.502Z,61.90
2019-05-28T23:41:47.512Z,61.40
2019-05-28T23:44:17.960Z,61.60
2019-05-28T23:46:48.578Z,62.10
2019-05-28T23:49:18.711Z,62.50
2019-05-28T23:51:48.744Z,62.10
2019-05-28T23:54:18.820Z,62.10
2019-05-28T23:56:48.932Z,62.00
2019-05-28T23:59:19.102Z,62.00
